createdAt,value
2022-09-21T00:00:45.855Z,18.20
2022-09-21T00:03:14.538Z,18.18
2022-09-21T00:05:41.811Z,18.08
2022-09-21T00:08:10.769Z,18.02
2022-09-21T00:10:38.289Z,18.01
2022-09-21T00:13:06.851Z,18.00
2022-09-21T00:15:34.257Z,18.06
2022-09-21T00:18:01.857Z,18.13
2022-09-21T00:20:29.230Z,18.12
2022-09-21T00:22:56.433Z,18.08
2022-09-21T00:25:23.566Z,18.10
2022-09-21T00:27:52.182Z,18.18
2022-09-21T00:30:19.440Z,18.30
2022-09-21T00:32:46.576Z,18.33
2022-09-21T00:35:13.806Z,18.34
2022-09-21T00:37:40.965Z,18.29
2022-09-21T00:40:08.309Z,18.14
2022-09-21T00:42:35.701Z,18.02
2022-09-21T00:45:03.159Z,17.96
2022-09-21T00:47:40.568Z,18.00
2022-09-21T00:50:08.959Z,18.15
2022-09-21T00:52:38.833Z,18.10
2022-09-21T00:55:12.415Z,18.07
2022-09-21T00:57:39.681Z,18.11
2022-09-21T01:00:08.713Z,18.14
2022-09-21T01:02:36.940Z,18.14
2022-09-21T01:05:05.396Z,17.97
2022-09-21T01:07:34.497Z,17.95
2022-09-21T01:10:05.133Z,17.91
2022-09-21T01:12:55.566Z,17.96
2022-09-21T01:15:22.731Z,17.99
2022-09-21T01:18:02.900Z,17.98
2022-09-21T01:20:39.460Z,18.01
2022-09-21T01:23:09.558Z,18.00
2022-09-21T01:25:36.732Z,17.96
2022-09-21T01:28:16.869Z,18.01
2022-09-21T01:30:48.959Z,17.96
2022-09-21T01:33:26.254Z,17.88
2022-09-21T01:35:57.600Z,17.74
2022-09-21T01:38:37.424Z,17.39
2022-09-21T01:41:06.850Z,17.22
2022-09-21T01:43:35.640Z,17.07
2022-09-21T01:46:04.135Z,16.96
2022-09-21T01:48:36.802Z,16.83
2022-09-21T01:51:07.375Z,16.85
2022-09-21T01:53:39.254Z,16.79
2022-09-21T01:56:10.402Z,16.50
2022-09-21T01:58:43.406Z,16.33
2022-09-21T02:01:13.134Z,16.09
2022-09-21T02:03:44.258Z,15.91
2022-09-21T02:06:11.670Z,15.81
2022-09-21T02:08:39.148Z,15.60
2022-09-21T02:11:07.947Z,15.53
2022-09-21T02:13:37.168Z,15.42
2022-09-21T02:16:22.118Z,15.28
2022-09-21T02:18:58.321Z,15.11
2022-09-21T02:21:35.140Z,14.95
2022-09-21T02:24:02.368Z,14.99
2022-09-21T02:26:33.816Z,15.04
2022-09-21T02:29:18.803Z,15.07
2022-09-21T02:31:45.982Z,15.03
2022-09-21T02:34:24.638Z,15.03
2022-09-21T02:37:01.644Z,15.03
2022-09-21T02:39:47.884Z,15.00
2022-09-21T02:42:18.300Z,14.89
2022-09-21T02:44:52.914Z,14.97
2022-09-21T02:47:23.130Z,14.93
2022-09-21T02:49:53.400Z,14.99
2022-09-21T02:52:22.022Z,15.12
2022-09-21T02:54:51.277Z,15.10
2022-09-21T02:57:20.273Z,15.07
2022-09-21T02:59:47.871Z,15.05
2022-09-21T03:02:15.567Z,15.11
2022-09-21T03:04:44.523Z,15.15
2022-09-21T03:07:11.704Z,15.06
2022-09-21T03:09:38.959Z,14.95
2022-09-21T03:12:06.276Z,14.92
2022-09-21T03:14:33.818Z,14.97
2022-09-21T03:17:01.025Z,15.01
2022-09-21T03:19:29.345Z,15.02
2022-09-21T03:21:56.953Z,15.05
2022-09-21T03:24:42.810Z,15.08
2022-09-21T03:27:10.046Z,15.17
2022-09-21T03:29:37.284Z,15.18
2022-09-21T03:32:04.546Z,15.17
2022-09-21T03:34:34.368Z,15.16
2022-09-21T03:37:02.500Z,15.23
2022-09-21T03:39:29.734Z,15.32
2022-09-21T03:41:57.086Z,15.29
2022-09-21T03:44:25.600Z,15.26
2022-09-21T03:46:53.035Z,15.32
2022-09-21T03:49:20.522Z,15.35
2022-09-21T03:51:51.406Z,15.29
2022-09-21T03:54:18.605Z,15.27
2022-09-21T03:56:45.893Z,15.27
2022-09-21T03:59:14.404Z,15.38
2022-09-21T04:01:42.469Z,15.20
2022-09-21T04:04:10.411Z,15.27
2022-09-21T04:06:37.661Z,15.25
2022-09-21T04:09:04.912Z,15.20
2022-09-21T04:11:33.389Z,15.06
2022-09-21T04:14:00.625Z,15.10
2022-09-21T04:16:28.418Z,15.08
2022-09-21T04:18:55.643Z,15.17
2022-09-21T04:21:23.313Z,15.25
2022-09-21T04:23:51.877Z,15.31
2022-09-21T04:26:24.165Z,15.33
2022-09-21T04:28:51.795Z,15.29
2022-09-21T04:31:19.079Z,15.12
2022-09-21T04:33:50.551Z,15.09
2022-09-21T04:36:18.417Z,15.03
2022-09-21T04:38:45.738Z,15.10
2022-09-21T04:41:13.390Z,15.20
2022-09-21T04:43:44.601Z,15.14
2022-09-21T04:46:13.479Z,15.17
2022-09-21T04:48:41.148Z,15.34
2022-09-21T04:51:08.431Z,15.40
2022-09-21T04:53:37.108Z,15.48
2022-09-21T04:56:05.167Z,15.33
2022-09-21T04:58:32.540Z,15.32
2022-09-21T05:01:00.144Z,15.39
2022-09-21T05:03:27.869Z,15.32
2022-09-21T05:05:56.109Z,15.40
2022-09-21T05:08:43.105Z,15.45
2022-09-21T05:11:13.095Z,15.58
2022-09-21T05:13:40.444Z,15.58
2022-09-21T05:16:07.724Z,15.72
2022-09-21T05:18:35.276Z,15.63
2022-09-21T05:21:03.600Z,15.57
2022-09-21T05:23:31.191Z,15.45
2022-09-21T05:25:59.324Z,15.38
2022-09-21T05:28:26.879Z,15.35
2022-09-21T05:31:16.612Z,15.32
2022-09-21T05:33:50.759Z,15.30
2022-09-21T05:36:30.821Z,15.26
2022-09-21T05:38:58.109Z,15.24
2022-09-21T05:41:25.419Z,15.14
2022-09-21T05:43:52.769Z,15.15
2022-09-21T05:46:24.906Z,15.18
2022-09-21T05:48:59.878Z,15.22
2022-09-21T05:51:36.481Z,15.25
2022-09-21T05:54:06.445Z,15.29
2022-09-21T05:56:39.836Z,15.36
2022-09-21T05:59:26.305Z,15.34
2022-09-21T06:02:17.703Z,15.33
2022-09-21T06:04:45.192Z,15.42
2022-09-21T06:07:12.379Z,15.65
2022-09-21T06:09:43.080Z,15.77
2022-09-21T06:12:13.548Z,15.83
2022-09-21T06:14:40.708Z,15.85
2022-09-21T06:17:07.913Z,15.92
2022-09-21T06:19:35.099Z,16.04
2022-09-21T06:22:02.374Z,16.08
2022-09-21T06:24:29.556Z,16.12
2022-09-21T06:26:56.765Z,16.11
2022-09-21T06:29:23.979Z,16.20
2022-09-21T06:31:51.376Z,16.25
2022-09-21T06:34:18.926Z,16.28
2022-09-21T06:36:47.150Z,16.41
2022-09-21T06:39:14.355Z,16.39
2022-09-21T06:41:41.641Z,16.44
2022-09-21T06:44:11.395Z,16.42
2022-09-21T06:46:38.576Z,16.42
2022-09-21T06:49:05.760Z,16.51
2022-09-21T06:51:32.936Z,16.41
2022-09-21T06:54:00.922Z,16.41
2022-09-21T06:56:28.390Z,16.42
2022-09-21T06:58:55.795Z,16.37
2022-09-21T07:01:23.393Z,16.40
2022-09-21T07:03:51.385Z,16.42
2022-09-21T07:06:19.056Z,16.48
2022-09-21T07:11:34.662Z,16.41
2022-09-21T07:14:01.832Z,16.43
2022-09-21T07:16:29.072Z,16.35
2022-09-21T07:18:57.042Z,16.39
2022-09-21T07:21:24.806Z,16.41
2022-09-21T07:23:52.183Z,16.45
2022-09-21T07:26:19.860Z,16.45
2022-09-21T07:28:47.044Z,16.52
2022-09-21T07:31:15.540Z,16.54
2022-09-21T07:33:43.740Z,16.57
2022-09-21T07:36:11.883Z,16.66
2022-09-21T07:38:40.080Z,16.69
2022-09-21T07:41:07.848Z,16.71
2022-09-21T07:43:35.241Z,16.76
2022-09-21T07:46:02.591Z,16.76
2022-09-21T07:48:31.106Z,16.68
2022-09-21T07:51:04.238Z,16.72
2022-09-21T07:53:32.290Z,16.78
2022-09-21T07:56:07.870Z,16.78
2022-09-21T07:58:54.404Z,16.82
2022-09-21T08:01:21.810Z,16.88
2022-09-21T08:03:50.039Z,16.99
2022-09-21T08:06:17.761Z,17.12
2022-09-21T08:08:45.800Z,17.33
2022-09-21T08:11:13.029Z,17.33
2022-09-21T08:13:40.172Z,17.64
2022-09-21T08:16:07.475Z,17.70
2022-09-21T08:18:39.636Z,17.60
2022-09-21T08:21:07.428Z,17.46
2022-09-21T08:23:34.894Z,17.71
2022-09-21T08:26:02.990Z,18.13
2022-09-21T08:28:33.881Z,18.22
2022-09-21T08:31:01.813Z,18.13
2022-09-21T08:33:29.948Z,17.92
2022-09-21T08:35:58.508Z,18.18
2022-09-21T08:38:26.009Z,18.58
2022-09-21T08:40:54.071Z,18.82
2022-09-21T08:43:21.236Z,18.94
2022-09-21T08:45:48.654Z,18.89
2022-09-21T08:48:31.971Z,19.10
2022-09-21T08:51:04.324Z,19.11
2022-09-21T08:53:33.796Z,19.57
2022-09-21T08:56:02.856Z,19.81
2022-09-21T08:58:31.311Z,20.51
2022-09-21T09:01:17.270Z,20.58
2022-09-21T09:03:56.646Z,21.23
2022-09-21T09:06:36.441Z,21.78
2022-09-21T09:09:06.637Z,20.90
2022-09-21T09:11:33.775Z,20.51
2022-09-21T09:14:03.911Z,20.31
2022-09-21T09:16:34.183Z,19.70
2022-09-21T09:19:22.453Z,19.78
2022-09-21T09:21:50.036Z,19.61
2022-09-21T09:24:20.054Z,19.55
2022-09-21T09:26:56.308Z,19.65
2022-09-21T09:29:23.479Z,19.73
2022-09-21T09:31:56.914Z,19.73
2022-09-21T09:34:30.443Z,19.73
2022-09-21T09:37:17.925Z,19.50
2022-09-21T09:39:54.672Z,19.42
2022-09-21T09:42:31.380Z,19.33
2022-09-21T09:45:12.023Z,19.19
2022-09-21T09:47:42.315Z,19.30
2022-09-21T09:50:21.856Z,19.45
2022-09-21T09:52:54.349Z,19.37
2022-09-21T09:55:26.151Z,19.10
2022-09-21T09:57:55.220Z,19.12
2022-09-21T10:00:22.943Z,19.45
2022-09-21T10:02:50.190Z,19.55
2022-09-21T10:05:22.063Z,19.49
2022-09-21T10:07:49.710Z,19.25
2022-09-21T10:10:24.864Z,19.18
2022-09-21T10:12:53.043Z,19.10
2022-09-21T10:15:23.509Z,19.32
2022-09-21T10:17:58.488Z,19.43
2022-09-21T10:20:25.992Z,19.60
2022-09-21T10:22:55.137Z,19.55
2022-09-21T10:25:22.761Z,19.59
2022-09-21T10:27:50.817Z,19.68
2022-09-21T10:30:30.207Z,19.58
2022-09-21T10:32:58.446Z,19.61
2022-09-21T10:35:27.142Z,19.54
2022-09-21T10:38:11.183Z,19.61
2022-09-21T10:40:39.596Z,19.69
2022-09-21T10:43:20.642Z,19.65
2022-09-21T10:45:53.650Z,19.71
2022-09-21T10:48:22.535Z,19.77
2022-09-21T10:50:50.575Z,19.56
2022-09-21T10:53:24.409Z,19.59
2022-09-21T10:56:18.624Z,19.68
2022-09-21T10:59:04.760Z,19.76
2022-09-21T11:01:31.981Z,19.78
2022-09-21T11:04:03.504Z,19.82
2022-09-21T11:06:37.756Z,19.73
2022-09-21T11:09:07.040Z,19.78
2022-09-21T11:11:37.490Z,19.83
2022-09-21T11:14:08.037Z,19.67
2022-09-21T11:16:40.652Z,19.79
2022-09-21T11:19:23.442Z,19.75
2022-09-21T11:21:57.904Z,19.70
2022-09-21T11:24:31.248Z,19.87
2022-09-21T11:27:15.056Z,20.06
2022-09-21T11:30:01.960Z,20.04
2022-09-21T11:32:43.575Z,20.19
2022-09-21T11:35:27.019Z,20.33
2022-09-21T11:37:57.409Z,20.10
2022-09-21T11:40:43.384Z,20.04
2022-09-21T11:43:10.500Z,20.10
2022-09-21T11:45:40.793Z,20.01
2022-09-21T11:48:26.895Z,19.92
2022-09-21T11:51:19.953Z,19.92
2022-09-21T11:54:03.645Z,20.20
2022-09-21T11:56:43.766Z,20.37
2022-09-21T11:59:11.230Z,20.32
2022-09-21T12:01:48.480Z,20.40
2022-09-21T12:04:41.630Z,20.33
2022-09-21T12:07:08.826Z,20.23
2022-09-21T12:09:54.552Z,20.21
2022-09-21T12:12:23.800Z,20.21
2022-09-21T12:14:51.149Z,20.29
2022-09-21T12:17:31.048Z,20.35
2022-09-21T12:20:07.844Z,20.44
2022-09-21T12:22:46.506Z,20.50
2022-09-21T12:25:17.134Z,20.50
2022-09-21T12:27:48.761Z,20.47
2022-09-21T12:30:17.856Z,20.40
2022-09-21T12:33:15.011Z,20.34
2022-09-21T12:35:47.789Z,20.38
2022-09-21T12:38:27.488Z,20.39
2022-09-21T12:41:16.012Z,20.18
2022-09-21T12:43:46.676Z,20.27
2022-09-21T12:46:13.962Z,20.22
2022-09-21T12:48:42.382Z,20.10
2022-09-21T12:51:22.969Z,20.06
2022-09-21T12:53:53.370Z,19.92
2022-09-21T12:56:29.399Z,19.95
2022-09-21T12:59:14.891Z,20.08
2022-09-21T13:01:45.261Z,20.21
2022-09-21T13:04:16.337Z,20.22
2022-09-21T13:06:59.015Z,20.36
2022-09-21T13:09:27.024Z,20.41
2022-09-21T13:11:56.869Z,20.49
2022-09-21T13:14:26.414Z,20.61
2022-09-21T13:16:57.686Z,20.59
2022-09-21T13:19:26.596Z,20.47
2022-09-21T13:22:14.783Z,20.40
2022-09-21T13:24:43.428Z,20.39
2022-09-21T13:27:10.783Z,20.42
2022-09-21T13:29:40.163Z,20.50
2022-09-21T13:32:10.799Z,20.49
2022-09-21T13:34:39.119Z,20.51
2022-09-21T13:37:14.133Z,20.51
2022-09-21T13:39:55.989Z,20.51
2022-09-21T13:42:32.614Z,20.41
2022-09-21T13:45:26.102Z,20.14
2022-09-21T13:48:00.238Z,20.09
2022-09-21T13:50:27.386Z,20.15
2022-09-21T13:52:59.223Z,20.11
2022-09-21T13:55:26.392Z,20.20
2022-09-21T13:57:58.957Z,20.28
2022-09-21T14:00:49.014Z,20.19
2022-09-21T14:03:24.451Z,20.04
2022-09-21T14:06:03.730Z,19.99
2022-09-21T14:08:36.451Z,19.95
2022-09-21T14:11:08.142Z,19.98
2022-09-21T14:13:41.579Z,20.03
2022-09-21T14:16:34.050Z,20.08
2022-09-21T14:19:02.657Z,20.17
2022-09-21T14:21:30.288Z,20.17
2022-09-21T14:24:07.735Z,20.21
2022-09-21T14:26:45.967Z,20.19
2022-09-21T14:29:13.524Z,20.12
2022-09-21T14:31:41.153Z,20.09
2022-09-21T14:34:14.716Z,20.11
2022-09-21T14:36:47.390Z,20.15
2022-09-21T14:39:21.669Z,20.18
2022-09-21T14:41:52.126Z,20.21
2022-09-21T14:44:25.603Z,20.14
2022-09-21T14:46:59.925Z,20.00
2022-09-21T14:49:46.020Z,19.95
2022-09-21T14:52:31.138Z,19.97
2022-09-21T14:55:00.014Z,19.99
2022-09-21T14:57:37.270Z,20.00
2022-09-21T15:00:20.988Z,19.98
2022-09-21T15:02:52.051Z,20.00
2022-09-21T15:05:19.263Z,19.99
2022-09-21T15:08:29.503Z,19.97
2022-09-21T15:11:10.371Z,20.08
2022-09-21T15:13:49.377Z,20.06
2022-09-21T15:16:22.057Z,19.99
2022-09-21T15:18:51.335Z,19.91
2022-09-21T15:21:22.019Z,19.91
2022-09-21T15:23:51.517Z,19.91
2022-09-21T15:26:26.709Z,19.90
2022-09-21T15:29:12.033Z,19.87
2022-09-21T15:31:41.834Z,19.77
2022-09-21T15:34:10.836Z,19.78
2022-09-21T15:36:39.581Z,19.80
2022-09-21T15:39:06.959Z,19.80
2022-09-21T15:41:34.191Z,19.83
2022-09-21T15:44:15.130Z,19.84
2022-09-21T15:46:44.068Z,19.77
2022-09-21T15:49:12.382Z,19.75
2022-09-21T15:51:41.736Z,19.69
2022-09-21T15:54:13.927Z,19.62
2022-09-21T15:56:43.545Z,19.48
2022-09-21T15:59:14.841Z,19.50
2022-09-21T16:01:44.800Z,19.54
2022-09-21T16:04:13.728Z,19.56
2022-09-21T16:06:46.808Z,19.58
2022-09-21T16:09:26.188Z,19.63
2022-09-21T16:11:53.980Z,19.51
2022-09-21T16:14:40.643Z,19.55
2022-09-21T16:17:13.911Z,19.54
2022-09-21T16:20:03.313Z,19.51
2022-09-21T16:22:33.264Z,19.52
2022-09-21T16:25:01.335Z,19.52
2022-09-21T16:27:31.853Z,19.53
2022-09-21T16:30:00.243Z,19.48
2022-09-21T16:32:27.441Z,19.42
2022-09-21T16:35:05.183Z,19.40
2022-09-21T16:37:32.846Z,19.27
2022-09-21T16:40:00.677Z,19.21
2022-09-21T16:42:32.916Z,19.16
2022-09-21T16:45:00.657Z,19.23
2022-09-21T16:47:28.108Z,19.19
2022-09-21T16:50:01.410Z,19.13
2022-09-21T16:52:29.324Z,19.08
2022-09-21T16:54:57.089Z,19.08
2022-09-21T16:57:24.728Z,19.04
2022-09-21T16:59:52.364Z,19.00
2022-09-21T17:02:19.665Z,18.94
2022-09-21T17:04:48.270Z,18.98
2022-09-21T17:07:16.945Z,19.02
2022-09-21T17:09:46.485Z,18.90
2022-09-21T17:12:14.999Z,18.90
2022-09-21T17:14:46.646Z,18.92
2022-09-21T17:17:17.918Z,18.87
2022-09-21T17:19:46.624Z,18.86
2022-09-21T17:22:19.708Z,18.87
2022-09-21T17:24:51.436Z,18.85
2022-09-21T17:27:21.764Z,18.73
2022-09-21T17:29:50.100Z,18.65
2022-09-21T17:32:20.517Z,18.65
2022-09-21T17:34:53.281Z,18.60
2022-09-21T17:37:22.053Z,18.50
2022-09-21T17:39:50.102Z,18.40
2022-09-21T17:42:19.016Z,18.36
2022-09-21T17:45:19.011Z,18.36
2022-09-21T17:47:46.548Z,18.34
2022-09-21T17:50:13.788Z,18.24
2022-09-21T17:53:01.983Z,18.26
2022-09-21T17:55:29.474Z,18.18
2022-09-21T17:58:00.671Z,18.24
2022-09-21T18:00:33.271Z,18.27
2022-09-21T18:03:01.130Z,18.26
2022-09-21T18:05:29.360Z,18.16
2022-09-21T18:07:56.980Z,18.05
2022-09-21T18:10:29.573Z,18.13
2022-09-21T18:13:07.493Z,17.95
2022-09-21T18:15:43.286Z,17.90
2022-09-21T18:18:31.764Z,17.85
2022-09-21T18:21:09.015Z,17.70
2022-09-21T18:23:41.295Z,17.67
2022-09-21T18:26:13.369Z,17.57
2022-09-21T18:28:42.295Z,17.64
2022-09-21T18:31:18.740Z,17.49
2022-09-21T18:33:56.814Z,17.43
2022-09-21T18:36:41.042Z,17.30
2022-09-21T18:39:14.103Z,17.32
2022-09-21T18:41:46.394Z,17.41
2022-09-21T18:44:18.640Z,17.45
2022-09-21T18:46:51.177Z,17.30
2022-09-21T18:49:35.804Z,17.27
2022-09-21T18:52:25.283Z,17.14
2022-09-21T18:54:53.044Z,17.08
2022-09-21T18:57:20.609Z,17.12
2022-09-21T18:59:48.025Z,17.23
2022-09-21T19:02:20.106Z,17.33
2022-09-21T19:04:48.916Z,17.42
2022-09-21T19:07:21.486Z,17.46
2022-09-21T19:10:00.851Z,17.56
2022-09-21T19:12:28.019Z,17.63
2022-09-21T19:14:55.164Z,17.57
2022-09-21T19:17:22.312Z,17.62
2022-09-21T19:20:17.312Z,17.60
2022-09-21T19:22:50.497Z,17.64
2022-09-21T19:25:27.567Z,17.61
2022-09-21T19:27:58.587Z,17.63
2022-09-21T19:30:25.968Z,17.54
2022-09-21T19:32:56.582Z,17.52
2022-09-21T19:35:25.702Z,17.52
2022-09-21T19:37:54.008Z,17.54
2022-09-21T19:40:23.360Z,17.52
2022-09-21T19:42:53.874Z,17.55
2022-09-21T19:45:21.977Z,17.55
2022-09-21T19:47:53.371Z,17.57
2022-09-21T19:50:20.792Z,17.50
2022-09-21T19:52:48.155Z,17.52
2022-09-21T19:55:39.402Z,17.52
2022-09-21T19:58:25.081Z,17.49
2022-09-21T20:00:53.783Z,17.42
2022-09-21T20:03:31.330Z,17.31
2022-09-21T20:06:06.761Z,17.35
2022-09-21T20:08:40.153Z,17.26
2022-09-21T20:11:26.300Z,17.28
2022-09-21T20:14:02.797Z,17.33
2022-09-21T20:16:33.072Z,17.32
2022-09-21T20:19:03.748Z,17.23
2022-09-21T20:21:36.829Z,17.23
2022-09-21T20:24:11.509Z,17.15
2022-09-21T20:26:39.747Z,17.16
2022-09-21T20:29:08.284Z,17.17
2022-09-21T20:31:54.934Z,17.01
2022-09-21T20:34:22.123Z,16.97
2022-09-21T20:36:49.324Z,16.86
2022-09-21T20:39:16.514Z,16.83
2022-09-21T20:41:43.663Z,16.79
2022-09-21T20:44:12.573Z,16.84
2022-09-21T20:46:39.768Z,16.75
2022-09-21T20:49:08.648Z,16.68
2022-09-21T20:51:36.219Z,16.55
2022-09-21T20:54:04.141Z,16.58
2022-09-21T20:56:31.451Z,16.55
2022-09-21T20:58:59.371Z,16.51
2022-09-21T21:01:27.182Z,16.53
2022-09-21T21:04:03.305Z,16.57
2022-09-21T21:06:35.034Z,16.49
2022-09-21T21:09:02.172Z,16.50
2022-09-21T21:11:29.316Z,16.63
2022-09-21T21:13:56.601Z,16.59
2022-09-21T21:16:24.131Z,16.46
2022-09-21T21:18:52.545Z,16.31
2022-09-21T21:21:19.733Z,16.38
2022-09-21T21:24:09.209Z,16.28
2022-09-21T21:27:00.296Z,16.15
2022-09-21T21:29:23.881Z,16.10
2022-09-21T21:31:51.297Z,16.16
2022-09-21T21:34:18.524Z,16.18
2022-09-21T21:36:45.825Z,16.28
2022-09-21T21:39:13.118Z,16.26
2022-09-21T21:41:41.449Z,16.17
2022-09-21T21:44:11.567Z,16.15
2022-09-21T21:46:38.924Z,16.20
2022-09-21T21:49:06.089Z,16.25
2022-09-21T21:51:33.341Z,16.25
2022-09-21T21:54:00.933Z,16.25
2022-09-21T21:56:28.212Z,16.34
2022-09-21T21:58:56.017Z,16.30
2022-09-21T22:01:25.240Z,16.25
2022-09-21T22:03:53.854Z,16.26
2022-09-21T22:06:21.605Z,16.27
2022-09-21T22:08:49.100Z,16.27
2022-09-21T22:11:17.651Z,16.29
2022-09-21T22:13:45.356Z,16.34
2022-09-21T22:16:14.735Z,16.31
2022-09-21T22:18:42.550Z,16.27
2022-09-21T22:21:11.347Z,16.23
2022-09-21T22:23:38.927Z,16.34
2022-09-21T22:26:11.205Z,16.39
2022-09-21T22:28:39.764Z,16.33
2022-09-21T22:31:12.028Z,16.25
2022-09-21T22:33:39.572Z,16.18
2022-09-21T22:36:33.105Z,16.12
2022-09-21T22:39:00.684Z,16.01
2022-09-21T22:41:29.845Z,16.02
2022-09-21T22:43:57.648Z,15.89
2022-09-21T22:46:26.044Z,15.83
2022-09-21T22:48:53.477Z,15.81
2022-09-21T22:51:21.301Z,15.79
2022-09-21T22:53:49.700Z,15.78
2022-09-21T22:56:18.569Z,15.71
2022-09-21T22:58:47.376Z,15.68
2022-09-21T23:01:18.122Z,15.59
2022-09-21T23:03:46.774Z,15.56
2022-09-21T23:06:15.396Z,15.51
2022-09-21T23:08:42.872Z,15.56
2022-09-21T23:11:14.326Z,15.56
2022-09-21T23:13:41.926Z,15.58
2022-09-21T23:16:11.851Z,15.55
2022-09-21T23:18:39.983Z,15.56
2022-09-21T23:21:09.047Z,15.60
2022-09-21T23:23:36.284Z,15.66
2022-09-21T23:26:11.641Z,15.60
2022-09-21T23:28:39.429Z,15.57
2022-09-21T23:31:08.119Z,15.56
2022-09-21T23:33:39.715Z,15.58
2022-09-21T23:36:08.104Z,15.64
2022-09-21T23:38:35.749Z,15.63
2022-09-21T23:41:03.191Z,15.64
2022-09-21T23:43:30.733Z,15.65
2022-09-21T23:45:58.416Z,15.61
2022-09-21T23:48:27.084Z,15.61
2022-09-21T23:50:55.544Z,15.67
2022-09-21T23:53:23.291Z,15.73
2022-09-21T23:55:51.572Z,15.71
2022-09-21T23:58:19.543Z,15.71
